createdAt,value
2023-01-01T00:02:19.426Z,101496.52
2023-01-01T00:04:46.986Z,101501.88
2023-01-01T00:07:13.625Z,101508.27
2023-01-01T00:09:58.959Z,101516.48
2023-01-01T00:12:25.545Z,101513.13
2023-01-01T00:14:54.324Z,101509.61
2023-01-01T00:17:21.561Z,101505.88
2023-01-01T00:19:48.480Z,101500.83
2023-01-01T00:22:54.524Z,101498.30
2023-01-01T00:25:23.958Z,101498.18
2023-01-01T00:27:51.038Z,101504.29
2023-01-01T00:30:18.736Z,101511.33
2023-01-01T00:32:54.817Z,101517.14
2023-01-01T00:35:26.289Z,101514.88
2023-01-01T00:37:54.796Z,101519.56
2023-01-01T00:40:21.792Z,101524.44
2023-01-01T00:42:51.493Z,101527.46
2023-01-01T00:45:21.823Z,101523.20
2023-01-01T00:47:51.636Z,101522.48
2023-01-01T00:50:19.363Z,101527.61
2023-01-01T00:52:50.303Z,101519.15
2023-01-01T00:55:17.296Z,101515.88
2023-01-01T00:57:45.094Z,101523.88
2023-01-01T01:00:12.958Z,101529.52
2023-01-01T01:02:40.166Z,101524.77
2023-01-01T01:05:07.576Z,101530.18
2023-01-01T01:07:36.500Z,101530.38
2023-01-01T01:10:04.100Z,101529.83
2023-01-01T01:12:32.634Z,101528.81
2023-01-01T01:14:59.462Z,101524.65
2023-01-01T01:17:28.881Z,101527.23
2023-01-01T01:19:55.659Z,101528.81
2023-01-01T01:22:28.033Z,101531.00
2023-01-01T01:24:57.333Z,101531.30
2023-01-01T01:27:24.829Z,101531.86
2023-01-01T01:29:51.988Z,101529.70
2023-01-01T01:32:21.471Z,101522.57
2023-01-01T01:34:49.438Z,101519.52
2023-01-01T01:37:19.130Z,101513.73
2023-01-01T01:39:50.282Z,101508.76
2023-01-01T01:42:21.267Z,101501.80
2023-01-01T01:44:57.533Z,101499.64
2023-01-01T01:47:46.004Z,101495.01
2023-01-01T01:50:20.898Z,101490.80
2023-01-01T01:53:06.995Z,101490.95
2023-01-01T01:55:39.529Z,101491.60
2023-01-01T01:58:09.186Z,101492.61
2023-01-01T02:00:35.798Z,101493.56
2023-01-01T02:03:07.543Z,101494.13
2023-01-01T02:05:38.851Z,101496.24
2023-01-01T02:08:09.574Z,101496.07
2023-01-01T02:10:38.886Z,101494.29
2023-01-01T02:13:06.239Z,101490.21
2023-01-01T02:15:44.262Z,101489.15
2023-01-01T02:18:19.672Z,101489.59
2023-01-01T02:21:24.783Z,101482.02
2023-01-01T02:24:06.375Z,101480.19
2023-01-01T02:26:48.373Z,101481.34
2023-01-01T02:29:27.468Z,101475.74
2023-01-01T02:31:58.727Z,101480.66
2023-01-01T02:34:47.979Z,101475.96
2023-01-01T02:37:20.031Z,101474.95
2023-01-01T02:39:54.823Z,101476.47
2023-01-01T02:42:25.937Z,101475.50
2023-01-01T02:44:58.307Z,101469.95
2023-01-01T02:47:25.159Z,101473.74
2023-01-01T02:50:03.765Z,101466.41
2023-01-01T02:53:14.443Z,101468.23
2023-01-01T02:56:06.407Z,101472.66
2023-01-01T02:59:15.808Z,101471.23
2023-01-01T03:02:33.836Z,101473.77
2023-01-01T03:05:32.685Z,101468.36
2023-01-01T03:08:31.714Z,101464.63
2023-01-01T03:11:12.704Z,101463.33
2023-01-01T03:13:50.306Z,101461.10
2023-01-01T03:16:24.753Z,101454.97
2023-01-01T03:19:12.851Z,101451.11
2023-01-01T03:21:51.250Z,101441.59
2023-01-01T03:24:42.768Z,101443.67
2023-01-01T03:27:20.156Z,101447.30
2023-01-01T03:29:52.133Z,101448.59
2023-01-01T03:32:51.675Z,101453.58
2023-01-01T03:35:21.265Z,101454.80
2023-01-01T03:37:55.522Z,101461.96
2023-01-01T03:40:23.523Z,101461.45
2023-01-01T03:42:54.839Z,101457.55
2023-01-01T03:45:35.992Z,101456.23
2023-01-01T03:48:05.067Z,101449.48
2023-01-01T03:51:09.090Z,101448.88
2023-01-01T03:53:41.956Z,101448.52
2023-01-01T03:56:31.202Z,101439.41
2023-01-01T03:59:07.185Z,101445.63
2023-01-01T04:01:42.352Z,101467.09
2023-01-01T04:04:11.382Z,101466.97
2023-01-01T04:06:38.747Z,101478.73
2023-01-01T04:09:11.844Z,101485.27
2023-01-01T04:12:04.232Z,101487.55
2023-01-01T04:14:35.654Z,101490.88
2023-01-01T04:17:04.550Z,101496.84
2023-01-01T04:19:32.879Z,101498.46
2023-01-01T04:22:00.491Z,101502.89
2023-01-01T04:24:27.687Z,101513.30
2023-01-01T04:26:55.128Z,101518.61
2023-01-01T04:29:22.662Z,101516.77
2023-01-01T04:31:50.270Z,101519.39
2023-01-01T04:34:17.757Z,101518.70
2023-01-01T04:36:45.037Z,101524.70
2023-01-01T04:44:40.745Z,101526.55
2023-01-01T04:47:08.304Z,101528.02
2023-01-01T04:49:35.259Z,101528.98
2023-01-01T04:52:02.089Z,101536.10
2023-01-01T04:54:28.924Z,101540.39
2023-01-01T04:56:57.148Z,101538.98
2023-01-01T04:59:24.059Z,101538.47
2023-01-01T05:01:51.981Z,101538.17
2023-01-01T05:04:18.751Z,101534.98
2023-01-01T05:06:45.776Z,101537.36
2023-01-01T05:12:31.246Z,101540.80
2023-01-01T05:14:58.620Z,101541.17
2023-01-01T05:24:04.305Z,101544.66
2023-01-01T05:26:34.448Z,101540.27
2023-01-01T05:29:02.122Z,101535.11
2023-01-01T05:31:32.791Z,101534.46
2023-01-01T05:36:30.328Z,101529.19
2023-01-01T05:38:58.715Z,101532.94
2023-01-01T05:41:26.381Z,101530.79
2023-01-01T05:43:53.963Z,101530.06
2023-01-01T05:46:24.786Z,101529.45
2023-01-01T05:48:53.588Z,101526.41
2023-01-01T05:51:23.730Z,101518.08
2023-01-01T05:53:51.505Z,101520.48
2023-01-01T05:56:18.923Z,101521.20
2023-01-01T05:58:46.900Z,101524.69
2023-01-01T06:01:23.808Z,101522.65
2023-01-01T06:03:52.548Z,101526.06
2023-01-01T06:06:23.284Z,101523.29
2023-01-01T06:08:59.117Z,101524.95
2023-01-01T06:39:07.671Z,101537.39
2023-01-01T06:41:35.115Z,101533.44
2023-01-01T06:44:02.865Z,101542.54
2023-01-01T06:46:32.910Z,101532.09
2023-01-01T06:49:05.263Z,101544.21
2023-01-01T06:51:38.614Z,101548.89
2023-01-01T06:54:07.441Z,101553.39
2023-01-01T06:56:35.611Z,101554.23
2023-01-01T06:59:04.782Z,101562.41
2023-01-01T07:01:35.696Z,101562.77
2023-01-01T07:04:07.353Z,101561.67
2023-01-01T07:06:35.776Z,101557.80
2023-01-01T07:09:05.048Z,101564.30
2023-01-01T07:11:33.254Z,101558.98
2023-01-01T07:14:02.748Z,101555.17
2023-01-01T07:16:34.092Z,101551.87
2023-01-01T07:19:01.860Z,101557.23
2023-01-01T07:21:30.307Z,101557.96
2023-01-01T07:24:02.270Z,101553.16
2023-01-01T07:26:41.703Z,101554.45
2023-01-01T07:29:14.504Z,101561.09
2023-01-01T07:31:46.909Z,101557.64
2023-01-01T07:34:24.218Z,101558.52
2023-01-01T07:36:55.275Z,101553.28
2023-01-01T07:39:24.630Z,101550.88
2023-01-01T07:41:56.179Z,101551.46
2023-01-01T07:44:25.106Z,101560.66
2023-01-01T07:47:07.875Z,101562.14
2023-01-01T07:49:38.920Z,101563.04
2023-01-01T07:52:12.568Z,101557.59
2023-01-01T07:54:46.649Z,101547.80
2023-01-01T07:57:16.262Z,101548.62
2023-01-01T07:59:45.745Z,101548.46
2023-01-01T08:02:15.736Z,101546.17
2023-01-01T08:04:47.849Z,101556.48
2023-01-01T08:07:18.964Z,101560.52
2023-01-01T08:09:52.907Z,101560.85
2023-01-01T08:12:24.148Z,101560.31
2023-01-01T08:14:55.272Z,101557.78
2023-01-01T08:17:27.935Z,101567.80
2023-01-01T08:20:00.650Z,101565.61
2023-01-01T08:22:29.971Z,101560.38
2023-01-01T08:24:58.732Z,101561.98
2023-01-01T08:27:30.425Z,101568.02
2023-01-01T08:29:58.334Z,101576.95
2023-01-01T08:32:28.199Z,101582.34
2023-01-01T08:35:02.557Z,101577.86
2023-01-01T08:37:36.649Z,101580.31
2023-01-01T08:40:17.788Z,101586.28
2023-01-01T08:42:47.804Z,101591.38
2023-01-01T08:45:23.108Z,101591.52
2023-01-01T08:48:06.745Z,101580.40
2023-01-01T08:50:41.455Z,101574.64
2023-01-01T08:53:11.309Z,101568.98
2023-01-01T08:55:40.315Z,101567.26
2023-01-01T08:58:08.869Z,101564.13
2023-01-01T09:00:38.148Z,101567.83
2023-01-01T09:03:06.712Z,101568.15
2023-01-01T09:05:33.734Z,101563.91
2023-01-01T09:08:04.396Z,101560.45
2023-01-01T09:10:32.603Z,101564.12
2023-01-01T09:13:05.613Z,101569.48
2023-01-01T09:15:38.534Z,101565.67
2023-01-01T09:18:08.139Z,101562.80
2023-01-01T09:20:40.028Z,101570.53
2023-01-01T09:23:16.989Z,101564.31
2023-01-01T09:25:48.555Z,101556.14
2023-01-01T09:28:26.046Z,101548.34
2023-01-01T09:30:55.643Z,101549.24
2023-01-01T09:33:26.911Z,101550.15
2023-01-01T09:36:17.124Z,101551.45
2023-01-01T09:38:56.273Z,101540.57
2023-01-01T09:41:55.745Z,101538.63
2023-01-01T09:44:55.533Z,101534.73
2023-01-01T09:47:43.874Z,101547.20
2023-01-01T09:50:19.675Z,101537.77
2023-01-01T09:53:06.033Z,101527.59
2023-01-01T09:55:49.273Z,101528.77
2023-01-01T09:58:28.159Z,101528.59
2023-01-01T10:01:20.568Z,101524.98
2023-01-01T10:04:24.692Z,101517.71
2023-01-01T10:06:58.975Z,101518.62
2023-01-01T10:10:10.852Z,101512.35
2023-01-01T10:12:58.051Z,101514.77
2023-01-01T10:15:35.259Z,101514.64
2023-01-01T10:18:33.965Z,101513.40
2023-01-01T10:21:21.364Z,101489.15
2023-01-01T10:24:34.714Z,101510.55
2023-01-01T10:27:05.440Z,101510.36
2023-01-01T10:29:47.319Z,101511.46
2023-01-01T10:32:26.716Z,101516.65
2023-01-01T10:35:12.556Z,101513.05
2023-01-01T10:37:45.066Z,101506.48
2023-01-01T10:40:23.225Z,101493.52
2023-01-01T10:42:55.289Z,101469.40
2023-01-01T10:45:42.298Z,101488.50
2023-01-01T10:48:16.400Z,101486.20
2023-01-01T10:51:04.491Z,101481.61
2023-01-01T10:53:58.103Z,101478.80
2023-01-01T10:56:40.641Z,101478.83
2023-01-01T10:59:42.639Z,101473.26
2023-01-01T11:02:31.222Z,101460.21
2023-01-01T11:05:22.373Z,101458.27
2023-01-01T11:07:51.098Z,101458.86
2023-01-01T11:10:22.212Z,101452.45
2023-01-01T11:13:07.593Z,101448.42
2023-01-01T11:15:50.027Z,101445.48
2023-01-01T11:18:24.790Z,101444.48
2023-01-01T11:20:58.469Z,101439.77
2023-01-01T11:23:44.781Z,101435.03
2023-01-01T11:26:11.655Z,101430.30
2023-01-01T11:28:41.331Z,101424.52
2023-01-01T11:31:19.451Z,101424.11
2023-01-01T11:33:51.856Z,101423.86
2023-01-01T11:36:32.270Z,101420.17
2023-01-01T11:39:26.170Z,101413.48
2023-01-01T11:41:59.583Z,101406.15
2023-01-01T11:44:35.437Z,101405.64
2023-01-01T11:47:05.336Z,101400.51
2023-01-01T11:49:34.008Z,101399.50
2023-01-01T11:52:00.716Z,101389.86
2023-01-01T11:54:27.843Z,101390.08
2023-01-01T11:57:03.135Z,101386.77
2023-01-01T11:59:42.757Z,101385.39
2023-01-01T12:02:17.093Z,101386.48
2023-01-01T12:04:53.673Z,101385.09
2023-01-01T12:07:23.352Z,101387.53
2023-01-01T12:09:53.991Z,101382.26
2023-01-01T12:12:46.017Z,101383.16
2023-01-01T12:15:21.319Z,101372.65
2023-01-01T12:18:12.018Z,101369.70
2023-01-01T12:20:49.682Z,101372.52
2023-01-01T12:23:18.221Z,101377.42
2023-01-01T12:25:55.758Z,101372.28
2023-01-01T12:28:41.209Z,101371.90
2023-01-01T12:31:35.654Z,101375.95
2023-01-01T12:34:12.381Z,101374.55
2023-01-01T12:36:53.592Z,101376.04
2023-01-01T12:39:56.218Z,101373.77
2023-01-01T12:42:33.320Z,101369.20
2023-01-01T12:45:18.793Z,101364.96
2023-01-01T12:48:04.614Z,101368.08
2023-01-01T12:51:05.207Z,101365.05
2023-01-01T12:53:35.475Z,101365.55
2023-01-01T12:56:08.035Z,101366.94
2023-01-01T12:58:44.180Z,101372.61
2023-01-01T13:01:34.419Z,101372.66
2023-01-01T13:04:10.554Z,101372.90
2023-01-01T13:06:47.435Z,101376.73
2023-01-01T13:09:22.368Z,101377.77
2023-01-01T13:12:00.560Z,101379.39
2023-01-01T13:14:27.442Z,101380.81
2023-01-01T13:16:56.622Z,101379.64
2023-01-01T13:19:32.671Z,101384.20
2023-01-01T13:22:20.569Z,101377.25
2023-01-01T13:25:08.317Z,101377.93
2023-01-01T13:27:57.043Z,101377.52
2023-01-01T13:30:46.095Z,101381.02
2023-01-01T13:33:36.199Z,101382.92
2023-01-01T13:36:12.437Z,101384.46
2023-01-01T13:38:49.973Z,101386.93
2023-01-01T13:41:56.939Z,101386.02
2023-01-01T13:44:26.481Z,101383.05
2023-01-01T13:47:43.309Z,101379.64
2023-01-01T13:50:38.251Z,101384.08
2023-01-01T13:53:22.640Z,101383.40
2023-01-01T13:56:10.942Z,101387.19
2023-01-01T13:58:39.561Z,101387.75
2023-01-01T14:01:30.041Z,101386.98
2023-01-01T14:04:00.932Z,101390.81
2023-01-01T14:06:40.075Z,101389.35
2023-01-01T14:09:16.907Z,101389.48
2023-01-01T14:11:43.504Z,101387.00
2023-01-01T14:14:27.848Z,101391.90
2023-01-01T14:17:06.948Z,101393.45
2023-01-01T14:19:36.248Z,101393.02
2023-01-01T14:22:07.218Z,101394.73
2023-01-01T14:24:42.847Z,101389.27
2023-01-01T14:27:17.879Z,101388.36
2023-01-01T14:29:47.687Z,101388.92
2023-01-01T14:32:25.007Z,101390.98
2023-01-01T14:35:00.964Z,101390.25
2023-01-01T14:37:27.690Z,101385.80
2023-01-01T14:40:28.000Z,101392.02
2023-01-01T14:43:10.310Z,101398.56
2023-01-01T14:45:50.997Z,101402.49
2023-01-01T14:48:20.285Z,101398.14
2023-01-01T14:50:50.159Z,101401.00
2023-01-01T14:53:22.077Z,101404.40
2023-01-01T14:55:49.424Z,101403.94
2023-01-01T14:58:20.497Z,101403.83
2023-01-01T15:00:47.991Z,101402.81
2023-01-01T15:03:17.796Z,101400.59
2023-01-01T15:05:56.366Z,101398.87
2023-01-01T15:08:28.560Z,101400.31
2023-01-01T15:10:58.903Z,101399.88
2023-01-01T15:13:27.681Z,101396.70
2023-01-01T15:16:15.154Z,101402.32
2023-01-01T15:18:45.158Z,101396.52
2023-01-01T15:21:12.848Z,101400.33
2023-01-01T15:23:55.577Z,101405.56
2023-01-01T15:26:48.869Z,101408.73
2023-01-01T15:29:38.810Z,101408.68
2023-01-01T15:32:09.153Z,101408.75
2023-01-01T15:34:48.516Z,101409.33
2023-01-01T15:37:37.468Z,101407.36
2023-01-01T15:40:25.160Z,101407.40
2023-01-01T15:43:00.782Z,101410.50
2023-01-01T15:45:35.232Z,101412.73
2023-01-01T15:48:29.453Z,101416.97
2023-01-01T15:51:13.232Z,101416.15
2023-01-01T15:54:15.658Z,101416.84
2023-01-01T15:56:42.405Z,101415.23
2023-01-01T15:59:17.546Z,101412.84
2023-01-01T16:01:49.916Z,101408.42
2023-01-01T16:04:27.949Z,101407.63
2023-01-01T16:07:08.104Z,101408.59
2023-01-01T16:09:38.183Z,101410.34
2023-01-01T16:12:05.357Z,101411.91
2023-01-01T16:14:32.154Z,101409.91
2023-01-01T16:17:02.632Z,101418.42
2023-01-01T16:19:32.470Z,101417.67
2023-01-01T16:21:59.139Z,101414.27
2023-01-01T16:24:26.775Z,101414.02
2023-01-01T16:26:53.559Z,101415.88
2023-01-01T16:29:20.354Z,101418.16
2023-01-01T16:31:48.136Z,101418.54
2023-01-01T16:34:15.049Z,101421.96
2023-01-01T16:36:44.229Z,101424.55
2023-01-01T16:39:11.897Z,101430.14
2023-01-01T16:41:42.385Z,101435.96
2023-01-01T16:44:16.156Z,101442.66
2023-01-01T16:46:43.526Z,101440.14
2023-01-01T16:49:10.504Z,101433.95
2023-01-01T16:51:42.147Z,101438.63
2023-01-01T16:54:11.883Z,101440.29
2023-01-01T16:56:38.580Z,101437.77
2023-01-01T16:59:12.431Z,101436.55
2023-01-01T17:01:43.244Z,101435.42
2023-01-01T17:04:12.098Z,101436.18
2023-01-01T17:06:38.970Z,101439.54
2023-01-01T17:09:08.910Z,101436.40
2023-01-01T17:11:35.999Z,101435.80
2023-01-01T17:14:02.620Z,101437.31
2023-01-01T17:16:34.676Z,101442.31
2023-01-01T17:19:21.146Z,101442.20
2023-01-01T17:21:48.538Z,101444.15
2023-01-01T17:24:16.954Z,101439.50
2023-01-01T17:26:44.479Z,101449.63
2023-01-01T17:29:12.131Z,101449.63
2023-01-01T17:31:38.889Z,101455.54
2023-01-01T17:34:05.825Z,101451.09
2023-01-01T17:36:32.558Z,101457.89
2023-01-01T17:38:59.317Z,101461.45
2023-01-01T17:41:26.139Z,101464.58
2023-01-01T17:43:53.129Z,101463.77
2023-01-01T17:46:27.796Z,101466.35
2023-01-01T17:48:56.665Z,101468.61
2023-01-01T17:51:25.659Z,101466.63
2023-01-01T17:53:54.460Z,101467.71
2023-01-01T17:56:22.687Z,101465.77
2023-01-01T17:58:51.795Z,101467.46
2023-01-01T18:01:18.701Z,101469.50
2023-01-01T18:03:46.259Z,101467.66
2023-01-01T18:06:13.038Z,101463.23
2023-01-01T18:08:40.226Z,101464.92
2023-01-01T18:11:07.080Z,101469.52
2023-01-01T18:13:35.015Z,101461.45
2023-01-01T18:16:08.276Z,101456.98
2023-01-01T18:18:36.985Z,101460.59
2023-01-01T18:21:18.852Z,101465.02
2023-01-01T18:23:46.318Z,101464.46
2023-01-01T18:26:13.091Z,101459.70
2023-01-01T18:28:40.283Z,101463.59
2023-01-01T18:31:10.087Z,101468.97
2023-01-01T18:33:38.026Z,101465.88
2023-01-01T18:36:07.299Z,101472.40
2023-01-01T18:38:35.032Z,101471.48
2023-01-01T18:41:45.571Z,101471.92
2023-01-01T18:44:27.924Z,101474.44
2023-01-01T18:47:03.838Z,101473.08
2023-01-01T18:49:35.536Z,101472.64
2023-01-01T18:52:05.375Z,101473.05
2023-01-01T18:54:33.975Z,101475.14
2023-01-01T18:57:12.798Z,101473.48
2023-01-01T18:59:39.989Z,101476.27
2023-01-01T19:02:13.276Z,101474.36
2023-01-01T19:04:40.688Z,101478.25
2023-01-01T19:07:10.815Z,101482.17
2023-01-01T19:09:37.694Z,101478.24
2023-01-01T19:12:10.881Z,101474.28
2023-01-01T19:14:38.265Z,101471.55
2023-01-01T19:17:14.587Z,101473.25
2023-01-01T19:19:41.546Z,101475.01
2023-01-01T19:22:30.368Z,101471.45
2023-01-01T19:25:02.538Z,101474.67
2023-01-01T19:27:33.477Z,101474.20
2023-01-01T19:30:01.474Z,101475.28
2023-01-01T19:32:28.197Z,101475.19
2023-01-01T19:34:55.741Z,101476.16
2023-01-01T19:37:22.779Z,101475.66
2023-01-01T19:39:51.001Z,101479.90
2023-01-01T19:42:18.019Z,101479.07
2023-01-01T19:44:45.266Z,101483.80
2023-01-01T19:47:11.902Z,101477.58
2023-01-01T19:49:38.688Z,101480.80
2023-01-01T19:52:06.663Z,101478.83
2023-01-01T19:54:33.469Z,101485.10
2023-01-01T19:57:00.135Z,101482.38
2023-01-01T19:59:32.937Z,101481.79
2023-01-01T20:02:34.859Z,101483.34
2023-01-01T20:04:47.899Z,101486.63
2023-01-01T20:07:14.798Z,101488.14
2023-01-01T20:09:41.409Z,101488.10
2023-01-01T20:12:08.201Z,101488.80
2023-01-01T20:14:35.081Z,101488.09
2023-01-01T20:17:01.833Z,101492.40
2023-01-01T20:19:28.497Z,101491.65
2023-01-01T20:22:10.545Z,101489.80
2023-01-01T20:24:41.641Z,101489.16
2023-01-01T20:27:08.708Z,101485.58
2023-01-01T20:29:37.062Z,101486.42
2023-01-01T20:32:05.606Z,101484.00
2023-01-01T20:34:32.407Z,101485.17
2023-01-01T20:37:17.736Z,101488.27
2023-01-01T20:39:45.652Z,101486.85
2023-01-01T20:42:12.306Z,101491.71
2023-01-01T20:44:42.087Z,101487.23
2023-01-01T20:47:10.102Z,101490.83
2023-01-01T20:49:36.777Z,101488.90
2023-01-01T20:52:03.608Z,101491.33
2023-01-01T20:54:30.300Z,101498.06
2023-01-01T20:56:57.181Z,101503.11
2023-01-01T20:59:35.320Z,101499.72
2023-01-01T21:02:09.381Z,101500.08
2023-01-01T21:04:39.737Z,101498.70
2023-01-01T21:07:09.530Z,101499.77
2023-01-01T21:09:36.837Z,101495.73
2023-01-01T21:12:04.421Z,101501.15
2023-01-01T21:14:31.280Z,101497.40
2023-01-01T21:16:58.396Z,101498.13
2023-01-01T21:19:27.229Z,101493.45
2023-01-01T21:21:57.330Z,101491.70
2023-01-01T21:24:34.725Z,101491.20
2023-01-01T21:27:14.126Z,101486.50
2023-01-01T21:29:45.767Z,101485.39
2023-01-01T21:32:33.097Z,101486.84
2023-01-01T21:34:59.799Z,101485.91
2023-01-01T21:37:50.272Z,101480.89
2023-01-01T21:40:35.347Z,101476.62
2023-01-01T21:43:02.037Z,101473.44
2023-01-01T21:45:35.419Z,101470.52
2023-01-01T21:48:15.719Z,101465.98
2023-01-01T21:50:44.976Z,101466.55
2023-01-01T21:58:59.584Z,101467.70
2023-01-01T22:01:27.275Z,101470.52
2023-01-01T22:04:06.440Z,101470.41
2023-01-01T22:06:54.272Z,101464.65
2023-01-01T22:09:28.708Z,101462.86
2023-01-01T22:12:02.339Z,101460.71
2023-01-01T22:14:37.429Z,101456.10
2023-01-01T22:17:13.507Z,101463.16
2023-01-01T22:19:41.679Z,101464.14
2023-01-01T22:22:13.024Z,101460.77
2023-01-01T22:24:42.028Z,101460.19
2023-01-01T22:27:14.852Z,101460.27
2023-01-01T22:29:43.211Z,101457.20
2023-01-01T22:32:29.196Z,101452.03
2023-01-01T22:35:03.233Z,101449.08
2023-01-01T22:37:37.086Z,101447.61
2023-01-01T22:40:04.020Z,101448.16
2023-01-01T22:42:38.203Z,101449.09
2023-01-01T22:45:20.844Z,101441.76
2023-01-01T22:47:48.030Z,101443.17
2023-01-01T22:50:25.791Z,101438.13
2023-01-01T22:52:52.638Z,101433.29
2023-01-01T22:55:19.264Z,101433.48
2023-01-01T22:57:46.469Z,101434.55
2023-01-01T23:00:13.962Z,101429.70
2023-01-01T23:02:40.671Z,101428.66
2023-01-01T23:05:07.466Z,101429.73
2023-01-01T23:07:41.322Z,101430.02
2023-01-01T23:10:09.667Z,101432.34
2023-01-01T23:12:36.076Z,101432.40
2023-01-01T23:15:21.185Z,101433.13
2023-01-01T23:17:51.100Z,101431.02
2023-01-01T23:20:17.992Z,101430.30
2023-01-01T23:22:50.068Z,101427.02
2023-01-01T23:25:18.165Z,101425.61
2023-01-01T23:27:48.446Z,101429.21
2023-01-01T23:30:15.697Z,101428.34
2023-01-01T23:32:42.437Z,101424.95
2023-01-01T23:35:10.256Z,101421.81
2023-01-01T23:37:37.222Z,101420.43
2023-01-01T23:40:04.063Z,101421.91
2023-01-01T23:42:30.524Z,101416.85
2023-01-01T23:44:57.143Z,101417.10
2023-01-01T23:47:23.601Z,101421.64
2023-01-01T23:49:50.108Z,101421.95
2023-01-01T23:52:16.908Z,101426.85
2023-01-01T23:54:43.918Z,101427.59
2023-01-01T23:57:10.720Z,101427.25
2023-01-01T23:59:37.213Z,101429.61
